Time;durP1;ratioP1;P1;durP2;ratioP2;P2;SDS_P1;SDS_P2;PMS_P1;PMS_P2;Temp;Humidity;BMP_temperature;BMP_pressure;BME280_temperature;BME280_humidity;BME280_pressure;Samples;Min_cycle;Max_cycle;Signal;HPM_P1;HPM_P2
2023/04/14 00:01:40;;;;;;;;;17.75;16.00;;;;;8.17;100.00;97425.78;4859230;28;102140;-69
2023/04/14 00:04:07;;;;;;;;;14.25;11.75;;;;;8.19;100.00;97422.88;4850869;28;101491;-70
2023/04/14 00:06:40;;;;;;;;;13.50;10.25;;;;;8.13;100.00;97407.56;4852570;28;101955;-70
2023/04/14 00:09:36;;;;;;;;;13.75;10.00;;;;;8.21;100.00;97420.78;4850398;28;107529;-70
2023/04/14 00:12:25;;;;;;;;;9.00;6.50;;;;;8.25;100.00;97428.22;4851697;28;101858;-70
2023/04/14 00:15:16;;;;;;;;;12.50;9.00;;;;;8.21;100.00;97427.00;4848751;28;101544;-70
2023/04/14 00:18:07;;;;;;;;;13.00;10.25;;;;;8.17;100.00;97417.69;4850456;28;101609;-70
2023/04/14 00:20:55;;;;;;;;;14.25;12.50;;;;;8.11;100.00;97415.03;4849474;28;106811;-71
2023/04/14 00:23:41;;;;;;;;;19.75;19.25;;;;;8.05;100.00;97424.81;4848408;28;102045;-70
2023/04/14 00:26:16;;;;;;;;;18.50;17.00;;;;;7.98;100.00;97416.75;4849817;28;101760;-71
2023/04/14 00:28:43;;;;;;;;;17.00;17.00;;;;;8.01;100.00;97420.88;4855395;28;101707;-70
2023/04/14 00:31:10;;;;;;;;;14.50;13.25;;;;;8.02;100.00;97417.13;4851251;28;103423;-70
2023/04/14 00:33:37;;;;;;;;;17.25;14.75;;;;;8.01;100.00;97410.13;4849685;28;101649;-70
2023/04/14 00:36:04;;;;;;;;;16.75;13.25;;;;;7.96;100.00;97400.00;4850158;28;101605;-70
2023/04/14 00:38:31;;;;;;;;;18.50;16.50;;;;;7.97;100.00;97403.53;4847794;28;101626;-69
2023/04/14 00:40:58;;;;;;;;;16.00;14.25;;;;;8.00;100.00;97392.31;4849442;28;103365;-69
2023/04/14 00:43:25;;;;;;;;;14.00;10.75;;;;;8.07;100.00;97393.94;4846929;28;101501;-69
2023/04/14 00:45:52;;;;;;;;;8.75;8.00;;;;;8.11;100.00;97405.09;4848091;28;101637;-69
2023/04/14 00:48:19;;;;;;;;;8.50;8.50;;;;;8.12;100.00;97400.53;4852643;28;101845;-69
2023/04/14 00:50:46;;;;;;;;;10.75;9.75;;;;;8.07;100.00;97404.69;4849779;28;103337;-70
2023/04/14 00:53:13;;;;;;;;;14.50;11.25;;;;;8.06;100.00;97408.41;4847330;28;101606;-70
2023/04/14 00:55:41;;;;;;;;;21.75;17.25;;;;;7.91;100.00;97397.13;4846465;28;101575;-70
2023/04/14 00:58:09;;;;;;;;;29.25;28.00;;;;;7.86;100.00;97418.47;4851800;28;102562;-70
2023/04/14 01:00:37;;;;;;;;;49.25;37.00;;;;;7.78;100.00;97410.63;4849440;28;103441;-70
2023/04/14 01:03:05;;;;;;;;;50.25;37.25;;;;;7.75;100.00;97410.19;4850181;28;101767;-70
2023/04/14 01:05:33;;;;;;;;;40.25;35.25;;;;;7.78;100.00;97399.03;4845500;28;101534;-70
2023/04/14 01:08:06;;;;;;;;;38.00;33.75;;;;;7.46;100.00;97357.75;4848613;28;101947;-69
2023/04/14 01:11:00;;;;;;;;;40.25;34.50;;;;;7.76;100.00;97388.47;4847459;28;102418;-70
2023/04/14 01:14:13;;;;;;;;;30.50;26.50;;;;;7.77;100.00;97371.28;4845916;28;101908;-70
2023/04/14 01:17:25;;;;;;;;;18.25;15.25;;;;;7.86;100.00;97391.53;4848547;28;101847;-70
2023/04/14 01:20:25;;;;;;;;;24.50;22.25;;;;;7.86;100.00;97396.09;4845876;28;102443;-70
2023/04/14 01:23:08;;;;;;;;;30.75;27.75;;;;;7.80;100.00;97387.00;4847443;28;107890;-70
2023/04/14 01:26:10;;;;;;;;;34.25;30.50;;;;;7.73;100.00;97386.22;4850107;28;101930;-70
2023/04/14 01:29:08;;;;;;;;;37.50;34.00;;;;;7.72;100.00;97372.97;4847688;28;102060;-70
2023/04/14 01:31:53;;;;;;;;;33.75;27.25;;;;;7.73;100.00;97369.25;4848333;28;101716;-70
2023/04/14 01:34:36;;;;;;;;;34.50;27.00;;;;;7.72;100.00;97373.78;4849201;28;109221;-70
2023/04/14 01:37:11;;;;;;;;;22.75;22.00;;;;;7.76;100.00;97380.41;4850161;28;101709;-70
2023/04/14 01:39:45;;;;;;;;;34.00;30.00;;;;;7.71;100.00;97382.91;4851949;28;101953;-70
2023/04/14 01:42:22;;;;;;;;;37.50;34.25;;;;;7.68;100.00;97388.72;4851815;28;101651;-70
2023/04/14 01:44:55;;;;;;;;;38.75;32.25;;;;;7.69;100.00;97401.13;4848417;28;107837;-70
2023/04/14 01:47:26;;;;;;;;;40.25;34.75;;;;;7.60;100.00;97397.03;4852477;28;101828;-70
2023/04/14 01:49:55;;;;;;;;;36.50;32.75;;;;;7.61;100.00;97398.66;4851676;28;101875;-70
2023/04/14 01:52:23;;;;;;;;;40.25;30.00;;;;;7.55;100.00;97391.44;4852998;28;102081;-70
2023/04/14 01:54:52;;;;;;;;;41.75;35.00;;;;;7.49;100.00;97379.66;4849673;28;103561;-70
2023/04/14 01:57:21;;;;;;;;;34.50;29.75;;;;;7.54;100.00;97387.09;4853769;28;101617;-70
2023/04/14 01:59:52;;;;;;;;;44.50;37.00;;;;;7.53;100.00;97388.97;4853550;28;101875;-71
2023/04/14 02:02:21;;;;;;;;;43.50;35.75;;;;;7.53;100.00;97390.81;4853310;28;101959;-70
2023/04/14 02:04:50;;;;;;;;;50.00;35.00;;;;;7.53;100.00;97385.44;4853904;28;103383;-70
2023/04/14 02:07:20;;;;;;;;;43.00;37.00;;;;;7.40;100.00;97362.09;4852137;28;101928;-69
2023/04/14 02:09:49;;;;;;;;;41.25;35.50;;;;;7.52;100.00;97378.44;4851654;28;101949;-69
2023/04/14 02:12:18;;;;;;;;;42.25;35.50;;;;;7.43;100.00;97363.56;4853613;28;101654;-70
2023/04/14 02:14:47;;;;;;;;;34.25;29.75;;;;;7.38;100.00;97355.31;4866879;28;107878;-70
2023/04/14 02:17:16;;;;;;;;;39.00;32.25;;;;;7.50;100.00;97372.44;4849888;28;101975;-70
2023/04/14 02:19:44;;;;;;;;;37.25;35.00;;;;;7.51;100.00;97366.03;4851049;28;101807;-70
2023/04/14 02:22:11;;;;;;;;;42.00;36.00;;;;;7.48;100.00;97367.25;4845887;28;101853;-70
2023/04/14 02:24:38;;;;;;;;;35.50;33.00;;;;;7.49;100.00;97373.47;4846454;28;103436;-70
2023/04/14 02:27:21;;;;;;;;;46.75;39.00;;;;;7.48;100.00;97363.72;4846049;28;101904;-70
2023/04/14 02:29:53;;;;;;;;;35.50;29.25;;;;;7.51;100.00;97352.56;4846785;28;101538;-70
2023/04/14 02:32:23;;;;;;;;;34.00;30.75;;;;;7.51;100.00;97348.03;4851213;28;101737;-70
2023/04/14 02:35:03;;;;;;;;;33.50;30.25;;;;;7.52;100.00;97346.97;4845927;28;102451;-70
2023/04/14 02:37:40;;;;;;;;;33.00;28.50;;;;;7.48;100.00;97340.34;4853144;28;101948;-70
2023/04/14 02:40:14;;;;;;;;;25.50;25.50;;;;;7.52;100.00;97362.31;4844671;28;101583;-70
2023/04/14 02:42:47;;;;;;;;;36.75;31.75;;;;;7.50;100.00;97349.06;4850123;28;101869;-70
2023/04/14 02:45:21;;;;;;;;;38.50;33.00;;;;;7.40;100.00;97331.69;4849826;28;108317;-70
2023/04/14 02:47:53;;;;;;;;;34.00;32.50;;;;;7.53;100.00;97343.25;4848348;28;106338;-70
2023/04/14 02:50:21;;;;;;;;;26.50;23.25;;;;;7.58;100.00;97347.97;4848643;28;101580;-70
2023/04/14 02:52:51;;;;;;;;;34.25;27.25;;;;;7.56;100.00;97355.44;4852654;28;101643;-70
2023/04/14 02:55:19;;;;;;;;;32.25;29.50;;;;;7.51;100.00;97344.50;4853452;28;107960;-70
2023/04/14 02:57:48;;;;;;;;;34.25;31.75;;;;;7.48;100.00;97339.53;4853775;28;101418;-70
2023/04/14 03:00:16;;;;;;;;;39.25;32.50;;;;;7.43;100.00;97331.31;4847013;28;101747;-70
2023/04/14 03:02:45;;;;;;;;;31.75;25.25;;;;;7.42;100.00;97325.09;4848990;28;101701;-70
2023/04/14 03:05:13;;;;;;;;;28.25;23.50;;;;;7.49;100.00;97319.66;4846468;28;103563;-70
2023/04/14 03:07:42;;;;;;;;;35.50;32.25;;;;;7.44;100.00;97324.84;4847989;28;101823;-70
2023/04/14 03:10:11;;;;;;;;;33.00;28.25;;;;;7.38;100.00;97323.03;4845434;28;102378;-70
2023/04/14 03:12:41;;;;;;;;;32.50;28.75;;;;;7.39;100.00;97324.66;4850655;28;101890;-70
2023/04/14 03:15:09;;;;;;;;;22.00;20.25;;;;;7.09;100.00;97257.97;4852067;28;103690;-70
2023/04/14 03:17:36;;;;;;;;;21.75;18.00;;;;;7.52;100.00;97325.44;4850932;28;101820;-70
2023/04/14 03:20:04;;;;;;;;;23.00;19.25;;;;;7.49;100.00;97319.66;4846407;28;101811;-70
2023/04/14 03:22:39;;;;;;;;;17.25;16.75;;;;;7.52;100.00;97325.44;4849754;28;102244;-70
2023/04/14 03:25:07;;;;;;;;;15.50;13.25;;;;;7.50;100.00;97315.94;4849386;28;103397;-70
2023/04/14 03:27:36;;;;;;;;;19.75;17.00;;;;;7.51;100.00;97321.13;4851662;28;101642;-70
2023/04/14 03:30:06;;;;;;;;;13.00;12.50;;;;;7.56;100.00;97309.72;4847146;28;101697;-70
2023/04/14 03:32:40;;;;;;;;;13.00;11.00;;;;;7.57;100.00;97320.25;4851623;28;101663;-70
2023/04/14 03:35:08;;;;;;;;;11.00;9.50;;;;;7.59;100.00;97330.81;4849918;28;103541;-70
2023/04/14 03:37:38;;;;;;;;;12.50;11.75;;;;;7.55;100.00;97325.03;4849158;28;101594;-70
2023/04/14 03:40:09;;;;;;;;;12.00;9.50;;;;;7.56;100.00;97315.09;4850768;28;101618;-70
2023/04/14 03:42:39;;;;;;;;;10.75;8.75;;;;;7.61;100.00;97310.72;4846719;28;101593;-70
2023/04/14 03:45:07;;;;;;;;;10.75;9.50;;;;;7.59;100.00;97314.66;4847104;28;103562;-70
2023/04/14 03:47:34;;;;;;;;;5.50;5.50;;;;;7.58;100.00;97302.25;4849285;28;101908;-70
2023/04/14 03:50:04;;;;;;;;;8.50;6.00;;;;;7.58;100.00;97299.56;4849748;28;101496;-70
2023/04/14 03:52:34;;;;;;;;;5.75;4.50;;;;;7.67;100.00;97305.53;4850575;28;102410;-70
2023/04/14 03:55:05;;;;;;;;;4.25;3.75;;;;;7.70;100.00;97305.91;4845201;28;103310;-70
2023/04/14 03:57:34;;;;;;;;;5.25;5.00;;;;;7.70;100.00;97295.16;4847940;28;101996;-70
2023/04/14 04:00:03;;;;;;;;;6.25;5.50;;;;;7.73;100.00;97302.81;4848504;28;101824;-69
2023/04/14 04:02:31;;;;;;;;;3.50;2.50;;;;;7.72;100.00;97298.47;4848671;28;102315;-70
2023/04/14 04:05:00;;;;;;;;;4.75;4.75;;;;;7.76;100.00;97305.06;4848562;28;103557;-70
2023/04/14 04:07:29;;;;;;;;;2.75;2.00;;;;;7.70;100.00;97294.34;4848827;28;101683;-70
2023/04/14 04:09:57;;;;;;;;;3.75;3.00;;;;;7.70;100.00;97307.81;4849782;28;101914;-70
2023/04/14 04:12:26;;;;;;;;;4.50;4.50;;;;;7.77;100.00;97311.28;4849170;28;101693;-70
2023/04/14 04:14:53;;;;;;;;;1.00;1.00;;;;;7.76;100.00;97305.06;4845058;28;103345;-70
2023/04/14 04:17:22;;;;;;;;;7.00;6.00;;;;;7.70;100.00;97300.53;4851250;28;101873;-70
2023/04/14 04:19:52;;;;;;;;;17.75;15.75;;;;;7.54;100.00;97291.09;4852414;28;101619;-71
2023/04/14 04:22:22;;;;;;;;;12.25;9.50;;;;;7.60;100.00;97289.44;4852511;28;101798;-68
2023/04/14 04:24:51;;;;;;;;;16.50;11.50;;;;;7.69;100.00;97293.53;4849963;28;107903;-69
2023/04/14 04:27:18;;;;;;;;;13.25;8.75;;;;;7.77;100.00;97300.50;4857397;28;101944;-69
2023/04/14 04:29:54;;;;;;;;;5.50;5.50;;;;;7.82;100.00;97292.63;4853173;28;102071;-69
2023/04/14 04:32:22;;;;;;;;;8.25;7.25;;;;;7.83;100.00;97297.81;4852816;28;101583;-69
2023/04/14 04:34:49;;;;;;;;;3.50;3.50;;;;;7.89;100.00;97307.69;4847756;28;103307;-69
2023/04/14 04:37:18;;;;;;;;;6.25;5.00;;;;;7.93;100.00;97313.44;4850915;28;101967;-69
2023/04/14 04:39:47;;;;;;;;;5.00;5.00;;;;;7.94;100.00;97313.25;4852703;28;101694;-69
2023/04/14 04:42:15;;;;;;;;;2.75;1.50;;;;;7.97;100.00;97309.31;4855341;28;101675;-69
2023/04/14 04:44:42;;;;;;;;;2.00;2.00;;;;;8.00;100.00;97304.31;4846004;28;104790;-69
2023/04/14 04:47:10;;;;;;;;;4.00;3.00;;;;;8.06;100.00;97311.50;4851716;28;101976;-69
2023/04/14 04:49:37;;;;;;;;;3.00;3.00;;;;;8.14;100.00;97312.31;4850593;28;101637;-69
2023/04/14 04:52:04;;;;;;;;;1.75;1.75;;;;;8.19;100.00;97313.31;4855882;28;102226;-69
2023/04/14 04:54:32;;;;;;;;;3.50;3.50;;;;;8.22;100.00;97309.34;4853121;28;103361;-69
2023/04/14 04:56:58;;;;;;;;;7.25;7.25;;;;;8.25;100.00;97304.34;4849330;28;103218;-69
2023/04/14 04:59:26;;;;;;;;;12.00;10.75;;;;;8.21;100.00;97296.91;4849877;28;101747;-71
2023/04/14 05:01:53;;;;;;;;;20.50;19.50;;;;;8.18;100.00;97298.19;4856491;28;101939;-69
2023/04/14 05:04:20;;;;;;;;;14.25;14.00;;;;;8.28;100.00;97300.41;4852674;28;103486;-69
2023/04/14 05:06:47;;;;;;;;;23.00;17.25;;;;;8.24;100.00;97296.50;4850659;28;101590;-69
2023/04/14 05:09:14;;;;;;;;;18.25;17.00;;;;;8.01;100.00;97244.03;4848096;28;101564;-69
2023/04/14 05:11:41;;;;;;;;;32.50;26.75;;;;;8.24;100.00;97293.81;4854569;28;101704;-68
2023/04/14 05:14:08;;;;;;;;;40.75;35.00;;;;;8.17;100.00;97276.88;4850452;28;103291;-69
2023/04/14 05:16:35;;;;;;;;;31.25;27.75;;;;;8.28;100.00;97295.84;4849357;28;101801;-69
2023/04/14 05:19:02;;;;;;;;;27.25;20.50;;;;;8.38;100.00;97281.91;4848584;28;101597;-69
2023/04/14 05:21:29;;;;;;;;;21.00;18.75;;;;;8.39;100.00;97280.88;4849854;28;101929;-69
2023/04/14 05:23:56;;;;;;;;;26.00;22.75;;;;;8.45;100.00;97282.69;4849756;28;103389;-70
2023/04/14 05:26:23;;;;;;;;;18.25;17.25;;;;;8.44;100.00;97281.88;4850045;28;101577;-71
2023/04/14 05:28:53;;;;;;;;;28.50;26.25;;;;;8.35;100.00;97282.34;4846351;28;102500;-71
2023/04/14 05:31:20;;;;;;;;;30.50;24.50;;;;;8.43;100.00;97282.91;4852757;28;101950;-69
2023/04/14 05:33:47;;;;;;;;;34.00;29.25;;;;;8.40;100.00;97274.44;4850728;28;103605;-70
2023/04/14 05:36:14;;;;;;;;;31.50;28.25;;;;;8.36;100.00;97273.25;4851345;28;101752;-70
2023/04/14 05:38:41;;;;;;;;;29.75;24.50;;;;;8.38;100.00;97268.44;4847685;28;101917;-70
2023/04/14 05:41:08;;;;;;;;;33.50;27.00;;;;;8.28;100.00;97263.53;4852423;28;102383;-70
2023/04/14 05:43:35;;;;;;;;;26.00;20.25;;;;;8.42;100.00;97258.91;4851121;28;103359;-70
2023/04/14 05:46:03;;;;;;;;;20.75;17.25;;;;;8.48;100.00;97248.06;4849636;28;101599;-70
2023/04/14 05:48:32;;;;;;;;;15.50;15.50;;;;;8.48;100.00;97233.75;4848933;28;101722;-71
2023/04/14 05:50:59;;;;;;;;;19.00;17.25;;;;;8.58;100.00;97244.88;4846625;28;101656;-71
2023/04/14 05:53:26;;;;;;;;;22.75;22.00;;;;;8.55;100.00;97250.69;4863130;28;104580;-71
2023/04/14 05:55:53;;;;;;;;;30.25;25.00;;;;;8.56;100.00;97246.94;4852285;28;101984;-70
2023/04/14 05:58:20;;;;;;;;;25.00;23.75;;;;;8.60;100.00;97240.06;4847717;28;102558;-70
2023/04/14 06:00:47;;;;;;;;;20.00;20.00;;;;;8.67;100.00;97234.63;4856852;28;101854;-70
2023/04/14 06:03:15;;;;;;;;;31.75;28.75;;;;;8.65;100.00;97234.84;4850501;28;107956;-70
2023/04/14 06:05:42;;;;;;;;;25.00;23.00;;;;;8.77;100.00;97238.47;4851765;28;101619;-70
2023/04/14 06:08:09;;;;;;;;;32.25;28.50;;;;;8.84;100.00;97233.00;4850367;28;101620;-70
2023/04/14 06:10:36;;;;;;;;;29.50;23.00;;;;;8.83;100.00;97226.78;4844327;28;101756;-71
2023/04/14 06:13:03;;;;;;;;;30.00;25.25;;;;;9.01;100.00;97228.66;4846372;28;103351;-70
2023/04/14 06:15:30;;;;;;;;;46.00;35.50;;;;;8.89;100.00;97220.50;4853058;28;102062;-69
2023/04/14 06:17:57;;;;;;;;;43.75;35.25;;;;;8.92;100.00;97214.66;4850784;28;104166;-70
2023/04/14 06:20:24;;;;;;;;;45.50;36.50;;;;;8.98;100.00;97212.94;4846173;28;102134;-70
2023/04/14 06:22:51;;;;;;;;;42.25;34.50;;;;;9.19;100.00;97215.16;4849377;28;103369;-70
2023/04/14 06:25:18;;;;;;;;;32.75;27.75;;;;;9.60;100.00;97219.81;4851923;28;101600;-70
2023/04/14 06:27:46;;;;;;;;;43.50;37.75;;;;;9.46;100.00;97221.03;4855372;28;101712;-70
2023/04/14 06:30:15;;;;;;;;;36.50;32.75;;;;;9.73;100.00;97222.31;4849499;28;101702;-70
2023/04/14 06:32:42;;;;;;;;;43.75;36.75;;;;;9.74;100.00;97228.56;4846553;28;103557;-70
2023/04/14 06:35:10;;;;;;;;;34.00;31.25;;;;;9.84;100.00;97223.44;4849232;28;101966;-70
2023/04/14 06:37:51;;;;;;;;;49.75;34.00;;;;;9.97;100.00;97234.03;4850965;28;101534;-70
2023/04/14 06:40:18;;;;;;;;;45.25;34.00;;;;;10.18;100.00;97224.59;4854254;28;101728;-70
2023/04/14 06:42:45;;;;;;;;;40.50;34.00;;;;;10.39;98.60;97226.75;4848351;28;107833;-70
2023/04/14 06:45:12;;;;;;;;;35.00;31.50;;;;;10.45;99.86;97223.09;4847574;28;101734;-70
2023/04/14 06:47:39;;;;;;;;;40.00;33.00;;;;;10.82;97.17;97226.41;4849279;28;101619;-70
2023/04/14 06:50:06;;;;;;;;;43.25;34.25;;;;;11.00;96.99;97230.84;4854884;28;101891;-70
2023/04/14 06:52:33;;;;;;;;;38.25;34.00;;;;;11.24;94.89;97227.06;4849498;28;103355;-70
2023/04/14 06:55:00;;;;;;;;;49.75;35.00;;;;;11.19;94.00;97213.44;4850851;28;101959;-70
2023/04/14 06:57:27;;;;;;;;;37.00;34.00;;;;;11.33;96.03;97211.28;4851626;28;101869;-70
2023/04/14 06:59:55;;;;;;;;;42.00;34.75;;;;;11.27;95.28;97202.22;4852860;28;101981;-70
2023/04/14 07:02:22;;;;;;;;;38.25;33.00;;;;;11.33;95.95;97203.97;4844849;28;103410;-70
2023/04/14 07:04:49;;;;;;;;;32.75;26.00;;;;;12.05;93.57;97198.88;4848002;28;101647;-71
2023/04/14 07:07:16;;;;;;;;;40.00;34.25;;;;;12.02;89.99;97194.75;4851643;28;101794;-69
2023/04/14 07:09:43;;;;;;;;;40.00;35.00;;;;;11.97;90.10;97183.03;4851785;28;101956;-70
2023/04/14 07:12:14;;;;;;;;;47.75;36.25;;;;;11.96;91.19;97179.50;4848363;28;103381;-70
2023/04/14 07:14:41;;;;;;;;;34.25;31.25;;;;;12.01;91.25;97151.66;4845109;28;101692;-70
2023/04/14 07:17:08;;;;;;;;;29.25;27.00;;;;;12.21;91.74;97172.84;4849465;28;101791;-70
2023/04/14 07:19:35;;;;;;;;;34.25;31.50;;;;;12.22;89.58;97161.75;4853155;28;101853;-70
2023/04/14 07:22:02;;;;;;;;;31.25;25.25;;;;;12.37;89.95;97153.88;4852373;28;103335;-69
2023/04/14 07:24:29;;;;;;;;;32.50;29.50;;;;;12.16;89.33;97151.91;4846135;28;101557;-69
2023/04/14 07:26:56;;;;;;;;;35.25;33.25;;;;;11.78;89.03;97147.22;4850111;28;102725;-70
2023/04/14 07:29:23;;;;;;;;;29.50;27.00;;;;;11.86;89.85;97156.81;4852637;28;102182;-70
2023/04/14 07:31:50;;;;;;;;;27.00;26.25;;;;;11.70;92.40;97163.00;4852333;28;103338;-70
2023/04/14 07:34:18;;;;;;;;;28.50;27.25;;;;;11.86;90.82;97157.63;4847583;28;101828;-69
2023/04/14 07:36:45;;;;;;;;;29.00;22.00;;;;;11.78;90.00;97162.63;4847781;28;101949;-70
2023/04/14 07:39:12;;;;;;;;;37.25;33.00;;;;;11.54;90.24;97168.13;4850175;28;101625;-70
2023/04/14 07:41:40;;;;;;;;;34.25;32.50;;;;;11.53;89.64;97158.34;4850388;28;103441;-70
2023/04/14 07:44:07;;;;;;;;;24.50;22.75;;;;;11.66;91.39;97162.66;4843746;28;101448;-70
2023/04/14 07:46:34;;;;;;;;;28.75;24.75;;;;;11.47;89.97;97159.34;4843551;28;101581;-70
2023/04/14 07:49:01;;;;;;;;;30.25;27.50;;;;;11.54;89.13;97170.81;4852063;28;101815;-70
2023/04/14 07:51:28;;;;;;;;;23.00;22.75;;;;;11.55;88.15;97167.06;4853853;28;103360;-70
2023/04/14 07:53:55;;;;;;;;;24.50;21.50;;;;;11.64;86.98;97165.63;4849993;28;101514;-70
2023/04/14 07:56:22;;;;;;;;;28.25;27.00;;;;;11.68;85.70;97171.34;4850203;28;101549;-71
2023/04/14 07:58:49;;;;;;;;;22.25;21.75;;;;;11.67;84.71;97164.28;4852877;28;101695;-70
2023/04/14 08:01:16;;;;;;;;;28.50;24.75;;;;;11.72;84.94;97168.97;4853128;28;107940;-70
2023/04/14 08:03:43;;;;;;;;;23.75;20.25;;;;;11.89;84.65;97172.56;4852342;28;101566;-70
2023/04/14 08:06:11;;;;;;;;;25.25;22.50;;;;;11.85;83.32;97171.41;4849031;28;101770;-70
2023/04/14 08:08:39;;;;;;;;;25.75;23.25;;;;;11.84;82.40;97167.88;4851442;28;101840;-70
2023/04/14 08:11:05;;;;;;;;;24.75;22.00;;;;;11.90;80.67;97160.66;4852500;28;103397;-70
2023/04/14 08:13:32;;;;;;;;;24.25;19.75;;;;;11.98;82.22;97162.97;4854663;28;101619;-70
2023/04/14 08:15:59;;;;;;;;;25.75;22.25;;;;;12.05;80.70;97155.53;4848217;28;101872;-70
2023/04/14 08:18:27;;;;;;;;;22.25;20.25;;;;;12.18;80.13;97155.19;4851877;28;101741;-70
2023/04/14 08:20:55;;;;;;;;;19.00;16.50;;;;;12.11;79.95;97149.13;4849850;28;103365;-71
2023/04/14 08:23:22;;;;;;;;;25.25;23.00;;;;;12.11;78.83;97157.25;4855115;28;101519;-71
2023/04/14 08:25:49;;;;;;;;;22.25;20.00;;;;;12.14;81.14;97145.09;4852236;28;102022;-71
2023/04/14 08:28:16;;;;;;;;;20.50;19.75;;;;;12.20;79.40;97153.06;4852757;28;101622;-71
2023/04/14 08:30:43;;;;;;;;;20.00;17.50;;;;;12.23;80.16;97155.28;4853416;28;103369;-70
2023/04/14 08:33:10;;;;;;;;;17.25;16.00;;;;;11.91;78.05;97091.91;4850321;28;103147;-70
2023/04/14 08:35:37;;;;;;;;;22.50;17.50;;;;;12.17;78.67;97137.28;4853459;28;101737;-71
2023/04/14 08:38:09;;;;;;;;;20.25;19.00;;;;;12.05;77.48;97126.53;4848323;28;102392;-71
2023/04/14 08:40:42;;;;;;;;;24.25;19.50;;;;;12.23;76.69;97133.59;4848154;28;103349;-69
2023/04/14 08:43:09;;;;;;;;;19.75;17.50;;;;;12.30;77.33;97131.53;4833500;28;101391;-69
2023/04/14 08:45:40;;;;;;;;;18.50;17.25;;;;;12.46;77.13;97130.72;4835050;28;101620;-71
2023/04/14 08:48:10;;;;;;;;;21.50;21.00;;;;;12.61;75.98;97132.00;4828350;28;101826;-69
2023/04/14 08:50:47;;;;;;;;;24.00;19.00;;;;;12.76;72.38;97126.78;4829160;28;103859;-69
2023/04/14 08:53:18;;;;;;;;;17.00;15.25;;;;;12.94;74.94;97121.03;4829995;28;101691;-69
2023/04/14 08:55:46;;;;;;;;;23.00;19.75;;;;;13.11;73.61;97116.41;4834913;28;101548;-69
2023/04/14 08:58:13;;;;;;;;;19.00;15.75;;;;;13.26;71.84;97135.59;4834125;28;101801;-69
2023/04/14 09:00:40;;;;;;;;;20.50;17.00;;;;;13.54;72.22;97131.00;4826990;28;103423;-69
2023/04/14 09:03:10;;;;;;;;;17.00;16.00;;;;;13.83;69.85;97129.66;4833253;28;101516;-69
2023/04/14 09:05:37;;;;;;;;;17.75;16.25;;;;;13.91;69.03;97121.06;4833776;28;101657;-69
2023/04/14 09:08:06;;;;;;;;;19.75;17.50;;;;;14.07;67.36;97120.09;4833352;28;101909;-69
2023/04/14 09:10:34;;;;;;;;;16.75;16.50;;;;;14.28;68.99;97121.06;4830754;28;103558;-69
2023/04/14 09:13:03;;;;;;;;;14.50;14.00;;;;;14.66;65.67;97122.72;4833198;28;102298;-69
2023/04/14 09:15:30;;;;;;;;;14.00;13.75;;;;;15.07;64.07;97119.13;4835836;28;101748;-69
2023/04/14 09:17:57;;;;;;;;;16.25;12.25;;;;;15.40;61.95;97111.63;4833020;28;101445;-69
2023/04/14 09:20:24;;;;;;;;;15.50;14.75;;;;;15.82;60.98;97109.56;4825625;28;107093;-69
2023/04/14 09:23:07;;;;;;;;;13.50;12.00;;;;;15.77;58.60;97106.81;4830613;28;101659;-69
2023/04/14 09:25:35;;;;;;;;;11.25;11.00;;;;;16.00;56.16;97105.47;4833752;29;103760;-69
2023/04/14 09:28:02;;;;;;;;;20.00;17.50;;;;;16.11;57.44;97089.94;4838334;28;101543;-69
2023/04/14 09:30:30;;;;;;;;;13.00;11.25;;;;;16.04;55.00;97092.94;4829373;28;103249;-69
2023/04/14 09:32:57;;;;;;;;;12.25;11.00;;;;;16.12;55.36;97097.03;4826511;28;101551;-69
2023/04/14 09:35:44;;;;;;;;;10.25;10.00;;;;;15.93;56.42;97104.94;4833096;28;102487;-69
2023/04/14 09:38:11;;;;;;;;;14.50;13.00;;;;;15.94;52.84;97093.75;4835204;28;101720;-70
2023/04/14 09:40:41;;;;;;;;;13.00;12.67;;;;;15.63;55.53;97095.63;4826720;28;103543;-70
2023/04/14 09:43:22;;;;;;;;;9.67;8.33;;;;;15.74;54.29;97082.84;4848385;28;101652;-70
2023/04/14 09:45:50;;;;;;;;;9.67;9.00;;;;;15.61;52.71;97089.63;4848730;28;102005;-70
2023/04/14 09:48:17;;;;;;;;;10.33;9.33;;;;;15.65;54.82;97089.91;4855340;28;101966;-70
2023/04/14 09:51:00;;;;;;;;;6.67;6.00;;;;;15.66;53.30;97083.38;4848315;28;103449;-70
2023/04/14 09:53:32;;;;;;;;;12.67;11.00;;;;;15.55;56.24;97081.72;4849697;28;101492;-69
2023/04/14 09:56:02;;;;;;;;;10.33;9.67;;;;;15.45;55.06;97073.47;4849898;28;101546;-68
2023/04/14 09:58:34;;;;;;;;;11.00;9.75;;;;;15.32;54.81;97080.25;4854664;28;101605;-69
2023/04/14 10:01:11;;;;;;;;;8.33;8.33;;;;;15.37;55.62;97072.09;4846456;28;103398;-69
2023/04/14 10:03:41;;;;;;;;;9.67;8.00;;;;;15.44;55.62;97078.13;4848020;28;101574;-69
2023/04/14 10:06:18;;;;;;;;;9.67;8.67;;;;;15.70;55.84;97083.66;4848069;28;102386;-69
2023/04/14 10:08:50;;;;;;;;;10.25;9.25;;;;;15.77;53.69;97071.38;4851644;28;101663;-69
2023/04/14 10:11:28;;;;;;;;;10.67;9.33;;;;;15.91;53.87;97077.94;4846272;28;108033;-70
2023/04/14 10:14:02;;;;;;;;;12.25;11.00;;;;;15.74;53.34;97074.66;4847662;28;101596;-69
2023/04/14 10:16:30;;;;;;;;;9.50;8.50;;;;;15.60;55.07;97073.56;4846291;28;101893;-69
2023/04/14 10:18:58;;;;;;;;;11.25;11.25;;;;;15.57;53.42;97077.66;4852582;28;101648;-69
2023/04/14 10:21:27;;;;;;;;;12.75;12.00;;;;;15.43;55.83;97071.03;4851254;28;103472;-68
2023/04/14 10:23:56;;;;;;;;;10.67;10.00;;;;;15.49;55.64;97077.34;4843945;28;101881;-69
2023/04/14 10:26:24;;;;;;;;;11.33;9.00;;;;;15.50;56.55;97057.16;4846883;28;102442;-69
2023/04/14 10:28:53;;;;;;;;;12.25;11.00;;;;;15.62;55.96;97069.44;4853028;28;101880;-69
2023/04/14 10:31:37;;;;;;;;;13.00;10.67;;;;;15.68;56.91;97064.84;4853314;28;103044;-69
2023/04/14 10:34:10;;;;;;;;;13.50;11.75;;;;;15.45;54.51;97048.97;4845566;28;101559;-69
2023/04/14 10:36:37;;;;;;;;;10.00;8.00;;;;;15.49;55.80;97067.22;4848892;28;101788;-69
2023/04/14 10:39:06;;;;;;;;;10.75;10.00;;;;;15.68;57.40;97053.94;4853562;28;101877;-69
2023/04/14 10:41:36;;;;;;;;;11.75;11.75;;;;;15.67;56.47;97060.47;4849825;28;103399;-69
2023/04/14 10:44:04;;;;;;;;;8.00;7.67;;;;;15.53;54.71;97056.66;4851248;28;101662;-69
2023/04/14 10:46:43;;;;;;;;;11.00;9.00;;;;;15.45;57.94;97051.69;4846088;28;101956;-69
2023/04/14 10:49:12;;;;;;;;;11.50;11.00;;;;;15.29;55.26;97052.75;4852470;28;101913;-69
2023/04/14 10:51:39;;;;;;;;;9.33;9.33;;;;;15.28;56.32;97059.28;4848615;28;103297;-70
2023/04/14 10:54:18;;;;;;;;;10.00;10.00;;;;;14.96;57.73;97034.94;4846546;28;101820;-69
2023/04/14 10:57:09;;;;;;;;;9.33;9.00;;;;;15.22;57.27;97055.72;4847402;28;101508;-70
2023/04/14 10:59:40;;;;;;;;;9.25;9.00;;;;;14.95;55.72;97047.75;4840240;28;102191;-70
2023/04/14 11:02:29;;;;;;;;;9.00;8.00;;;;;14.73;57.19;97045.22;4850501;28;103395;-70
2023/04/14 11:04:58;;;;;;;;;9.25;9.00;;;;;14.59;58.59;97035.88;4846241;28;101450;-69
2023/04/14 11:07:27;;;;;;;;;10.00;8.75;;;;;14.54;56.79;97035.91;4848426;28;101767;-69
2023/04/14 11:10:16;;;;;;;;;9.50;8.00;;;;;14.73;58.14;97026.16;4849833;28;101661;-69
2023/04/14 11:12:45;;;;;;;;;9.75;9.00;;;;;14.78;57.27;97008.22;4850693;28;103379;-69
2023/04/14 11:15:13;;;;;;;;;17.00;14.00;;;;;15.00;55.23;97017.00;4849093;28;101916;-70
2023/04/14 11:17:41;;;;;;;;;10.50;9.00;;;;;15.37;56.03;97014.91;4846471;28;101801;-70
2023/04/14 11:20:19;;;;;;;;;8.25;7.50;;;;;15.54;54.11;97014.69;4850673;28;101681;-69
2023/04/14 11:22:51;;;;;;;;;8.50;8.25;;;;;15.68;55.62;97015.78;4853638;28;107971;-69
2023/04/14 11:25:20;;;;;;;;;8.50;8.00;;;;;15.71;51.76;97023.44;4853338;28;101459;-69
2023/04/14 11:27:51;;;;;;;;;7.00;6.00;;;;;15.80;50.99;97007.34;4846016;28;101619;-70